sensor_id;sensor_type;location;lat;lon;timestamp;P1;durP1;ratioP1;P2;durP2;ratioP2
15616;SDS011;7908;51.688;7.130;2022-12-07T00:01:45;23.83;;;21.37;;
15616;SDS011;7908;51.688;7.130;2022-12-07T00:04:15;23.67;;;20.47;;
15616;SDS011;7908;51.688;7.130;2022-12-07T00:06:49;23.73;;;21.33;;
15616;SDS011;7908;51.688;7.130;2022-12-07T00:09:19;24.60;;;21.70;;
15616;SDS011;7908;51.688;7.130;2022-12-07T00:11:52;23.43;;;21.20;;
15616;SDS011;7908;51.688;7.130;2022-12-07T00:14:23;24.87;;;22.23;;
15616;SDS011;7908;51.688;7.130;2022-12-07T00:16:52;24.13;;;21.60;;
15616;SDS011;7908;51.688;7.130;2022-12-07T00:19:23;25.47;;;22.90;;
15616;SDS011;7908;51.688;7.130;2022-12-07T00:21:54;24.03;;;21.53;;
15616;SDS011;7908;51.688;7.130;2022-12-07T00:24:22;24.80;;;22.33;;
15616;SDS011;7908;51.688;7.130;2022-12-07T00:26:51;24.47;;;21.93;;
15616;SDS011;7908;51.688;7.130;2022-12-07T00:29:20;22.53;;;20.43;;
15616;SDS011;7908;51.688;7.130;2022-12-07T00:31:49;24.40;;;21.90;;
15616;SDS011;7908;51.688;7.130;2022-12-07T00:34:18;25.63;;;22.93;;
15616;SDS011;7908;51.688;7.130;2022-12-07T00:36:48;26.70;;;23.53;;
15616;SDS011;7908;51.688;7.130;2022-12-07T00:39:19;26.10;;;23.43;;
15616;SDS011;7908;51.688;7.130;2022-12-07T00:41:48;27.80;;;24.20;;
15616;SDS011;7908;51.688;7.130;2022-12-07T00:44:16;25.37;;;22.97;;
15616;SDS011;7908;51.688;7.130;2022-12-07T00:46:45;25.17;;;22.67;;
15616;SDS011;7908;51.688;7.130;2022-12-07T00:49:13;24.70;;;22.30;;
15616;SDS011;7908;51.688;7.130;2022-12-07T00:51:42;24.13;;;20.43;;
15616;SDS011;7908;51.688;7.130;2022-12-07T00:54:10;25.63;;;21.60;;
15616;SDS011;7908;51.688;7.130;2022-12-07T00:56:40;26.80;;;23.93;;
15616;SDS011;7908;51.688;7.130;2022-12-07T00:59:10;25.17;;;22.57;;
15616;SDS011;7908;51.688;7.130;2022-12-07T01:01:40;26.83;;;23.23;;
15616;SDS011;7908;51.688;7.130;2022-12-07T01:04:09;27.73;;;24.77;;
15616;SDS011;7908;51.688;7.130;2022-12-07T01:06:38;28.97;;;25.97;;
15616;SDS011;7908;51.688;7.130;2022-12-07T01:09:06;29.23;;;26.23;;
15616;SDS011;7908;51.688;7.130;2022-12-07T01:11:35;29.00;;;26.00;;
15616;SDS011;7908;51.688;7.130;2022-12-07T01:14:05;27.17;;;24.37;;
15616;SDS011;7908;51.688;7.130;2022-12-07T01:16:34;27.00;;;24.30;;
15616;SDS011;7908;51.688;7.130;2022-12-07T01:19:02;27.93;;;25.03;;
15616;SDS011;7908;51.688;7.130;2022-12-07T01:21:32;27.17;;;24.30;;
15616;SDS011;7908;51.688;7.130;2022-12-07T01:24:05;26.80;;;23.93;;
15616;SDS011;7908;51.688;7.130;2022-12-07T01:26:36;27.10;;;24.30;;
15616;SDS011;7908;51.688;7.130;2022-12-07T01:29:07;24.70;;;22.27;;
15616;SDS011;7908;51.688;7.130;2022-12-07T01:31:35;25.47;;;22.20;;
15616;SDS011;7908;51.688;7.130;2022-12-07T01:34:04;27.17;;;24.40;;
15616;SDS011;7908;51.688;7.130;2022-12-07T01:36:34;27.93;;;25.23;;
15616;SDS011;7908;51.688;7.130;2022-12-07T01:39:04;27.50;;;24.73;;
15616;SDS011;7908;51.688;7.130;2022-12-07T01:41:35;28.50;;;25.70;;
15616;SDS011;7908;51.688;7.130;2022-12-07T01:44:09;27.10;;;24.47;;
15616;SDS011;7908;51.688;7.130;2022-12-07T01:46:40;27.47;;;23.80;;
15616;SDS011;7908;51.688;7.130;2022-12-07T01:49:11;26.43;;;23.77;;
15616;SDS011;7908;51.688;7.130;2022-12-07T01:51:44;27.47;;;24.60;;
15616;SDS011;7908;51.688;7.130;2022-12-07T01:54:15;26.37;;;21.67;;
15616;SDS011;7908;51.688;7.130;2022-12-07T01:56:46;27.40;;;24.33;;
15616;SDS011;7908;51.688;7.130;2022-12-07T01:59:20;26.97;;;24.00;;
15616;SDS011;7908;51.688;7.130;2022-12-07T02:01:52;26.17;;;21.10;;
15616;SDS011;7908;51.688;7.130;2022-12-07T02:04:22;26.97;;;24.30;;
15616;SDS011;7908;51.688;7.130;2022-12-07T02:06:52;27.17;;;24.37;;
15616;SDS011;7908;51.688;7.130;2022-12-07T02:09:25;26.97;;;24.17;;
15616;SDS011;7908;51.688;7.130;2022-12-07T02:11:53;27.47;;;24.67;;
15616;SDS011;7908;51.688;7.130;2022-12-07T02:14:24;27.10;;;24.30;;
15616;SDS011;7908;51.688;7.130;2022-12-07T02:16:56;28.33;;;25.57;;
15616;SDS011;7908;51.688;7.130;2022-12-07T02:19:40;28.80;;;25.87;;
15616;SDS011;7908;51.688;7.130;2022-12-07T02:22:51;26.97;;;23.20;;
15616;SDS011;7908;51.688;7.130;2022-12-07T02:25:47;27.40;;;23.90;;
15616;SDS011;7908;51.688;7.130;2022-12-07T02:28:48;27.67;;;24.87;;
15616;SDS011;7908;51.688;7.130;2022-12-07T02:31:28;28.47;;;24.17;;
15616;SDS011;7908;51.688;7.130;2022-12-07T02:34:00;26.77;;;23.30;;
15616;SDS011;7908;51.688;7.130;2022-12-07T02:36:37;29.33;;;24.77;;
15616;SDS011;7908;51.688;7.130;2022-12-07T02:39:11;31.23;;;27.93;;
15616;SDS011;7908;51.688;7.130;2022-12-07T02:41:46;29.03;;;25.10;;
15616;SDS011;7908;51.688;7.130;2022-12-07T02:44:18;32.77;;;29.20;;
15616;SDS011;7908;51.688;7.130;2022-12-07T02:46:50;30.10;;;24.87;;
15616;SDS011;7908;51.688;7.130;2022-12-07T02:49:21;30.10;;;25.30;;
15616;SDS011;7908;51.688;7.130;2022-12-07T02:51:52;36.40;;;30.60;;
15616;SDS011;7908;51.688;7.130;2022-12-07T02:54:23;38.47;;;28.80;;
15616;SDS011;7908;51.688;7.130;2022-12-07T02:56:52;33.20;;;27.80;;
15616;SDS011;7908;51.688;7.130;2022-12-07T02:59:31;33.37;;;26.07;;
15616;SDS011;7908;51.688;7.130;2022-12-07T03:02:11;35.43;;;27.63;;
15616;SDS011;7908;51.688;7.130;2022-12-07T03:04:51;36.30;;;28.23;;
15616;SDS011;7908;51.688;7.130;2022-12-07T03:07:29;35.40;;;27.63;;
15616;SDS011;7908;51.688;7.130;2022-12-07T03:10:07;38.90;;;30.23;;
15616;SDS011;7908;51.688;7.130;2022-12-07T03:12:53;39.83;;;29.77;;
15616;SDS011;7908;51.688;7.130;2022-12-07T03:15:31;40.47;;;30.20;;
15616;SDS011;7908;51.688;7.130;2022-12-07T03:18:03;40.13;;;30.30;;
15616;SDS011;7908;51.688;7.130;2022-12-07T03:20:33;39.63;;;29.83;;
15616;SDS011;7908;51.688;7.130;2022-12-07T03:23:05;41.30;;;27.53;;
15616;SDS011;7908;51.688;7.130;2022-12-07T03:25:38;40.83;;;29.67;;
15616;SDS011;7908;51.688;7.130;2022-12-07T03:28:11;45.87;;;30.43;;
15616;SDS011;7908;51.688;7.130;2022-12-07T03:30:45;40.70;;;32.37;;
15616;SDS011;7908;51.688;7.130;2022-12-07T03:33:19;42.93;;;30.50;;
15616;SDS011;7908;51.688;7.130;2022-12-07T03:35:53;42.87;;;32.13;;
15616;SDS011;7908;51.688;7.130;2022-12-07T03:38:30;41.80;;;31.67;;
15616;SDS011;7908;51.688;7.130;2022-12-07T03:41:02;40.47;;;31.07;;
15616;SDS011;7908;51.688;7.130;2022-12-07T03:43:34;36.90;;;29.30;;
15616;SDS011;7908;51.688;7.130;2022-12-07T03:46:09;46.60;;;33.37;;
15616;SDS011;7908;51.688;7.130;2022-12-07T03:48:46;41.00;;;30.40;;
15616;SDS011;7908;51.688;7.130;2022-12-07T03:51:26;44.03;;;31.17;;
15616;SDS011;7908;51.688;7.130;2022-12-07T03:54:02;43.60;;;29.93;;
15616;SDS011;7908;51.688;7.130;2022-12-07T03:56:36;43.93;;;31.73;;
15616;SDS011;7908;51.688;7.130;2022-12-07T03:59:06;39.63;;;29.87;;
15616;SDS011;7908;51.688;7.130;2022-12-07T04:01:36;38.47;;;28.57;;
15616;SDS011;7908;51.688;7.130;2022-12-07T04:04:05;40.90;;;27.57;;
15616;SDS011;7908;51.688;7.130;2022-12-07T04:06:33;39.97;;;30.90;;
15616;SDS011;7908;51.688;7.130;2022-12-07T04:09:02;41.47;;;29.43;;
15616;SDS011;7908;51.688;7.130;2022-12-07T04:11:30;44.10;;;29.43;;
15616;SDS011;7908;51.688;7.130;2022-12-07T04:13:59;37.43;;;24.13;;
15616;SDS011;7908;51.688;7.130;2022-12-07T04:16:46;43.67;;;28.47;;
15616;SDS011;7908;51.688;7.130;2022-12-07T04:19:15;39.43;;;28.50;;
15616;SDS011;7908;51.688;7.130;2022-12-07T04:21:44;40.47;;;29.07;;
15616;SDS011;7908;51.688;7.130;2022-12-07T04:24:14;40.40;;;29.00;;
15616;SDS011;7908;51.688;7.130;2022-12-07T04:26:43;39.17;;;28.77;;
15616;SDS011;7908;51.688;7.130;2022-12-07T04:29:12;37.20;;;28.27;;
15616;SDS011;7908;51.688;7.130;2022-12-07T04:31:41;40.50;;;29.23;;
15616;SDS011;7908;51.688;7.130;2022-12-07T04:34:12;37.57;;;27.93;;
15616;SDS011;7908;51.688;7.130;2022-12-07T04:36:41;35.27;;;27.83;;
15616;SDS011;7908;51.688;7.130;2022-12-07T04:39:13;34.40;;;27.13;;
15616;SDS011;7908;51.688;7.130;2022-12-07T04:41:47;42.20;;;26.73;;
15616;SDS011;7908;51.688;7.130;2022-12-07T04:44:16;37.97;;;27.37;;
15616;SDS011;7908;51.688;7.130;2022-12-07T04:46:45;31.43;;;25.70;;
15616;SDS011;7908;51.688;7.130;2022-12-07T04:49:16;33.47;;;26.10;;
15616;SDS011;7908;51.688;7.130;2022-12-07T04:51:47;32.93;;;24.80;;
15616;SDS011;7908;51.688;7.130;2022-12-07T04:54:16;35.00;;;24.30;;
15616;SDS011;7908;51.688;7.130;2022-12-07T04:56:45;31.07;;;24.17;;
15616;SDS011;7908;51.688;7.130;2022-12-07T04:59:14;31.37;;;24.83;;
15616;SDS011;7908;51.688;7.130;2022-12-07T05:01:43;32.90;;;25.40;;
15616;SDS011;7908;51.688;7.130;2022-12-07T05:04:12;33.07;;;25.40;;
15616;SDS011;7908;51.688;7.130;2022-12-07T05:06:43;32.60;;;23.23;;
15616;SDS011;7908;51.688;7.130;2022-12-07T05:09:12;31.07;;;24.60;;
15616;SDS011;7908;51.688;7.130;2022-12-07T05:11:41;29.43;;;23.57;;
15616;SDS011;7908;51.688;7.130;2022-12-07T05:14:10;31.27;;;22.13;;
15616;SDS011;7908;51.688;7.130;2022-12-07T05:16:40;31.53;;;23.47;;
15616;SDS011;7908;51.688;7.130;2022-12-07T05:19:10;30.23;;;22.40;;
15616;SDS011;7908;51.688;7.130;2022-12-07T05:21:38;37.00;;;21.03;;
15616;SDS011;7908;51.688;7.130;2022-12-07T05:24:09;34.73;;;23.30;;
15616;SDS011;7908;51.688;7.130;2022-12-07T05:26:40;32.47;;;25.67;;
15616;SDS011;7908;51.688;7.130;2022-12-07T05:29:10;34.17;;;25.03;;
15616;SDS011;7908;51.688;7.130;2022-12-07T05:31:40;30.50;;;23.47;;
15616;SDS011;7908;51.688;7.130;2022-12-07T05:34:10;29.93;;;22.93;;
15616;SDS011;7908;51.688;7.130;2022-12-07T05:36:39;31.80;;;23.30;;
15616;SDS011;7908;51.688;7.130;2022-12-07T05:39:09;34.83;;;24.10;;
15616;SDS011;7908;51.688;7.130;2022-12-07T05:41:38;30.10;;;27.03;;
15616;SDS011;7908;51.688;7.130;2022-12-07T05:44:23;31.20;;;25.00;;
15616;SDS011;7908;51.688;7.130;2022-12-07T05:46:52;30.33;;;22.03;;
15616;SDS011;7908;51.688;7.130;2022-12-07T05:49:21;28.77;;;22.17;;
15616;SDS011;7908;51.688;7.130;2022-12-07T05:51:50;30.23;;;22.00;;
15616;SDS011;7908;51.688;7.130;2022-12-07T05:54:20;30.47;;;23.80;;
15616;SDS011;7908;51.688;7.130;2022-12-07T05:56:49;30.80;;;23.90;;
15616;SDS011;7908;51.688;7.130;2022-12-07T05:59:18;34.83;;;23.30;;
15616;SDS011;7908;51.688;7.130;2022-12-07T06:01:49;32.53;;;23.27;;
15616;SDS011;7908;51.688;7.130;2022-12-07T06:04:18;31.37;;;24.83;;
15616;SDS011;7908;51.688;7.130;2022-12-07T06:06:49;29.83;;;22.70;;
15616;SDS011;7908;51.688;7.130;2022-12-07T06:09:20;28.70;;;21.17;;
15616;SDS011;7908;51.688;7.130;2022-12-07T06:11:50;27.93;;;21.93;;
15616;SDS011;7908;51.688;7.130;2022-12-07T06:14:36;28.93;;;20.57;;
15616;SDS011;7908;51.688;7.130;2022-12-07T06:17:05;31.37;;;22.23;;
15616;SDS011;7908;51.688;7.130;2022-12-07T06:19:34;28.30;;;21.63;;
15616;SDS011;7908;51.688;7.130;2022-12-07T06:22:02;28.57;;;22.37;;
15616;SDS011;7908;51.688;7.130;2022-12-07T06:24:33;29.53;;;22.13;;
15616;SDS011;7908;51.688;7.130;2022-12-07T06:27:02;29.80;;;22.67;;
15616;SDS011;7908;51.688;7.130;2022-12-07T06:29:31;28.90;;;21.87;;
15616;SDS011;7908;51.688;7.130;2022-12-07T06:31:59;29.47;;;22.37;;
15616;SDS011;7908;51.688;7.130;2022-12-07T06:34:28;29.70;;;19.50;;
15616;SDS011;7908;51.688;7.130;2022-12-07T06:36:57;29.40;;;21.43;;
15616;SDS011;7908;51.688;7.130;2022-12-07T06:39:26;28.80;;;21.27;;
15616;SDS011;7908;51.688;7.130;2022-12-07T06:41:57;32.43;;;21.77;;
15616;SDS011;7908;51.688;7.130;2022-12-07T06:44:28;29.37;;;21.60;;
15616;SDS011;7908;51.688;7.130;2022-12-07T06:46:57;29.83;;;22.70;;
15616;SDS011;7908;51.688;7.130;2022-12-07T06:49:45;27.30;;;22.23;;
15616;SDS011;7908;51.688;7.130;2022-12-07T06:52:14;28.17;;;22.23;;
15616;SDS011;7908;51.688;7.130;2022-12-07T06:54:42;26.60;;;21.80;;
15616;SDS011;7908;51.688;7.130;2022-12-07T06:57:12;28.33;;;20.20;;
15616;SDS011;7908;51.688;7.130;2022-12-07T06:59:41;26.87;;;20.43;;
15616;SDS011;7908;51.688;7.130;2022-12-07T07:02:10;29.93;;;21.90;;
15616;SDS011;7908;51.688;7.130;2022-12-07T07:04:39;29.67;;;20.57;;
15616;SDS011;7908;51.688;7.130;2022-12-07T07:07:07;27.00;;;20.13;;
15616;SDS011;7908;51.688;7.130;2022-12-07T07:09:36;29.60;;;21.20;;
15616;SDS011;7908;51.688;7.130;2022-12-07T07:12:04;31.70;;;21.90;;
15616;SDS011;7908;51.688;7.130;2022-12-07T07:14:34;28.33;;;20.80;;
15616;SDS011;7908;51.688;7.130;2022-12-07T07:17:03;30.53;;;21.03;;
15616;SDS011;7908;51.688;7.130;2022-12-07T07:19:31;28.53;;;19.67;;
15616;SDS011;7908;51.688;7.130;2022-12-07T07:22:00;32.83;;;21.33;;
15616;SDS011;7908;51.688;7.130;2022-12-07T07:24:28;27.57;;;21.07;;
15616;SDS011;7908;51.688;7.130;2022-12-07T07:26:57;31.20;;;21.97;;
15616;SDS011;7908;51.688;7.130;2022-12-07T07:29:25;35.83;;;24.10;;
15616;SDS011;7908;51.688;7.130;2022-12-07T07:31:59;35.20;;;25.47;;
15616;SDS011;7908;51.688;7.130;2022-12-07T07:34:32;37.70;;;25.43;;
15616;SDS011;7908;51.688;7.130;2022-12-07T07:37:00;33.63;;;24.60;;
15616;SDS011;7908;51.688;7.130;2022-12-07T07:39:29;35.13;;;24.33;;
15616;SDS011;7908;51.688;7.130;2022-12-07T07:41:58;33.63;;;22.27;;
15616;SDS011;7908;51.688;7.130;2022-12-07T07:44:26;32.60;;;22.97;;
15616;SDS011;7908;51.688;7.130;2022-12-07T07:47:02;35.53;;;22.13;;
15616;SDS011;7908;51.688;7.130;2022-12-07T07:49:30;31.40;;;21.27;;
15616;SDS011;7908;51.688;7.130;2022-12-07T07:51:59;35.27;;;21.80;;
15616;SDS011;7908;51.688;7.130;2022-12-07T07:54:29;34.83;;;21.97;;
15616;SDS011;7908;51.688;7.130;2022-12-07T07:56:57;29.30;;;20.80;;
15616;SDS011;7908;51.688;7.130;2022-12-07T07:59:26;35.47;;;23.53;;
15616;SDS011;7908;51.688;7.130;2022-12-07T08:01:54;33.03;;;24.63;;
15616;SDS011;7908;51.688;7.130;2022-12-07T08:04:28;46.43;;;28.90;;
15616;SDS011;7908;51.688;7.130;2022-12-07T08:06:57;40.53;;;26.80;;
15616;SDS011;7908;51.688;7.130;2022-12-07T08:09:25;39.13;;;26.00;;
15616;SDS011;7908;51.688;7.130;2022-12-07T08:11:54;39.40;;;23.63;;
15616;SDS011;7908;51.688;7.130;2022-12-07T08:14:23;32.30;;;22.90;;
15616;SDS011;7908;51.688;7.130;2022-12-07T08:16:54;33.70;;;22.87;;
15616;SDS011;7908;51.688;7.130;2022-12-07T08:19:24;35.67;;;23.40;;
15616;SDS011;7908;51.688;7.130;2022-12-07T08:21:53;31.70;;;21.20;;
15616;SDS011;7908;51.688;7.130;2022-12-07T08:24:23;27.67;;;22.27;;
15616;SDS011;7908;51.688;7.130;2022-12-07T08:26:53;29.90;;;22.40;;
15616;SDS011;7908;51.688;7.130;2022-12-07T08:29:25;34.03;;;23.80;;
15616;SDS011;7908;51.688;7.130;2022-12-07T08:31:54;34.23;;;23.23;;
15616;SDS011;7908;51.688;7.130;2022-12-07T08:34:27;32.60;;;21.80;;
15616;SDS011;7908;51.688;7.130;2022-12-07T08:36:56;30.13;;;22.40;;
15616;SDS011;7908;51.688;7.130;2022-12-07T08:39:24;30.17;;;21.47;;
15616;SDS011;7908;51.688;7.130;2022-12-07T08:41:58;29.57;;;21.20;;
15616;SDS011;7908;51.688;7.130;2022-12-07T08:44:26;30.70;;;20.03;;
15616;SDS011;7908;51.688;7.130;2022-12-07T08:46:56;28.60;;;19.57;;
15616;SDS011;7908;51.688;7.130;2022-12-07T08:49:30;28.17;;;21.63;;
15616;SDS011;7908;51.688;7.130;2022-12-07T08:52:04;30.23;;;21.10;;
15616;SDS011;7908;51.688;7.130;2022-12-07T08:54:33;32.27;;;21.43;;
15616;SDS011;7908;51.688;7.130;2022-12-07T08:57:04;28.50;;;21.43;;
15616;SDS011;7908;51.688;7.130;2022-12-07T08:59:34;29.43;;;20.73;;
15616;SDS011;7908;51.688;7.130;2022-12-07T09:02:07;28.50;;;20.33;;
15616;SDS011;7908;51.688;7.130;2022-12-07T09:04:38;28.40;;;17.97;;
15616;SDS011;7908;51.688;7.130;2022-12-07T09:07:06;23.97;;;17.47;;
15616;SDS011;7908;51.688;7.130;2022-12-07T09:09:35;26.47;;;15.57;;
15616;SDS011;7908;51.688;7.130;2022-12-07T09:12:04;22.47;;;15.17;;
15616;SDS011;7908;51.688;7.130;2022-12-07T09:14:33;20.50;;;14.43;;
15616;SDS011;7908;51.688;7.130;2022-12-07T09:17:07;23.40;;;14.20;;
15616;SDS011;7908;51.688;7.130;2022-12-07T09:19:38;18.03;;;13.03;;
15616;SDS011;7908;51.688;7.130;2022-12-07T09:22:08;18.13;;;12.87;;
15616;SDS011;7908;51.688;7.130;2022-12-07T09:24:40;18.40;;;12.57;;
15616;SDS011;7908;51.688;7.130;2022-12-07T09:27:11;14.77;;;11.67;;
15616;SDS011;7908;51.688;7.130;2022-12-07T09:29:40;16.80;;;11.17;;
15616;SDS011;7908;51.688;7.130;2022-12-07T09:32:08;16.10;;;10.10;;
15616;SDS011;7908;51.688;7.130;2022-12-07T09:34:39;16.43;;;10.60;;
15616;SDS011;7908;51.688;7.130;2022-12-07T09:37:10;15.40;;;9.80;;
15616;SDS011;7908;51.688;7.130;2022-12-07T09:39:39;14.97;;;9.23;;
15616;SDS011;7908;51.688;7.130;2022-12-07T09:42:18;15.67;;;8.70;;
15616;SDS011;7908;51.688;7.130;2022-12-07T09:44:55;17.10;;;9.50;;
15616;SDS011;7908;51.688;7.130;2022-12-07T09:47:25;16.30;;;9.03;;
15616;SDS011;7908;51.688;7.130;2022-12-07T09:49:59;18.57;;;9.17;;
15616;SDS011;7908;51.688;7.130;2022-12-07T09:52:35;14.00;;;9.33;;
15616;SDS011;7908;51.688;7.130;2022-12-07T09:55:09;13.87;;;8.80;;
15616;SDS011;7908;51.688;7.130;2022-12-07T09:57:39;13.07;;;8.47;;
15616;SDS011;7908;51.688;7.130;2022-12-07T10:00:11;14.87;;;8.60;;
15616;SDS011;7908;51.688;7.130;2022-12-07T10:02:44;13.67;;;8.53;;
15616;SDS011;7908;51.688;7.130;2022-12-07T10:05:28;12.17;;;7.97;;
15616;SDS011;7908;51.688;7.130;2022-12-07T10:08:00;10.73;;;7.10;;
15616;SDS011;7908;51.688;7.130;2022-12-07T10:10:30;10.90;;;7.73;;
15616;SDS011;7908;51.688;7.130;2022-12-07T10:13:07;9.50;;;6.80;;
15616;SDS011;7908;51.688;7.130;2022-12-07T10:18:32;12.70;;;6.43;;
15616;SDS011;7908;51.688;7.130;2022-12-07T10:21:12;22.57;;;6.63;;
15616;SDS011;7908;51.688;7.130;2022-12-07T10:23:43;9.53;;;5.63;;
15616;SDS011;7908;51.688;7.130;2022-12-07T10:26:31;13.37;;;6.37;;
15616;SDS011;7908;51.688;7.130;2022-12-07T10:29:02;11.17;;;5.73;;
15616;SDS011;7908;51.688;7.130;2022-12-07T10:31:42;11.87;;;4.87;;
15616;SDS011;7908;51.688;7.130;2022-12-07T10:34:20;11.70;;;4.80;;
15616;SDS011;7908;51.688;7.130;2022-12-07T10:36:53;13.80;;;5.37;;
15616;SDS011;7908;51.688;7.130;2022-12-07T10:39:44;12.83;;;5.37;;
15616;SDS011;7908;51.688;7.130;2022-12-07T10:42:18;9.03;;;4.80;;
15616;SDS011;7908;51.688;7.130;2022-12-07T10:44:48;8.93;;;4.60;;
15616;SDS011;7908;51.688;7.130;2022-12-07T10:47:36;7.70;;;3.77;;
15616;SDS011;7908;51.688;7.130;2022-12-07T10:53:24;9.20;;;3.93;;
15616;SDS011;7908;51.688;7.130;2022-12-07T10:59:18;10.77;;;4.03;;
15616;SDS011;7908;51.688;7.130;2022-12-07T11:02:09;7.63;;;4.80;;
15616;SDS011;7908;51.688;7.130;2022-12-07T11:04:55;9.43;;;4.53;;
15616;SDS011;7908;51.688;7.130;2022-12-07T11:07:37;10.03;;;5.17;;
15616;SDS011;7908;51.688;7.130;2022-12-07T11:10:14;11.00;;;5.37;;
15616;SDS011;7908;51.688;7.130;2022-12-07T11:12:54;8.63;;;5.13;;
15616;SDS011;7908;51.688;7.130;2022-12-07T11:15:49;7.27;;;4.43;;
15616;SDS011;7908;51.688;7.130;2022-12-07T11:18:32;9.10;;;3.93;;
15616;SDS011;7908;51.688;7.130;2022-12-07T11:21:13;10.30;;;3.27;;
15616;SDS011;7908;51.688;7.130;2022-12-07T11:23:48;10.57;;;3.10;;
15616;SDS011;7908;51.688;7.130;2022-12-07T11:26:32;8.97;;;3.27;;
15616;SDS011;7908;51.688;7.130;2022-12-07T11:29:19;13.93;;;5.23;;
15616;SDS011;7908;51.688;7.130;2022-12-07T11:32:04;8.63;;;3.50;;
15616;SDS011;7908;51.688;7.130;2022-12-07T11:34:45;9.53;;;3.77;;
15616;SDS011;7908;51.688;7.130;2022-12-07T11:37:26;8.43;;;3.13;;
15616;SDS011;7908;51.688;7.130;2022-12-07T11:40:05;9.93;;;3.90;;
15616;SDS011;7908;51.688;7.130;2022-12-07T11:42:46;7.90;;;3.27;;
15616;SDS011;7908;51.688;7.130;2022-12-07T11:45:20;6.93;;;3.13;;
15616;SDS011;7908;51.688;7.130;2022-12-07T11:47:54;10.70;;;3.90;;
15616;SDS011;7908;51.688;7.130;2022-12-07T11:50:27;7.03;;;2.60;;
15616;SDS011;7908;51.688;7.130;2022-12-07T11:53:03;6.97;;;3.17;;
15616;SDS011;7908;51.688;7.130;2022-12-07T11:55:42;6.40;;;2.70;;
15616;SDS011;7908;51.688;7.130;2022-12-07T11:58:20;7.93;;;2.87;;
15616;SDS011;7908;51.688;7.130;2022-12-07T12:01:08;8.30;;;3.00;;
15616;SDS011;7908;51.688;7.130;2022-12-07T12:03:47;6.67;;;3.10;;
15616;SDS011;7908;51.688;7.130;2022-12-07T12:06:19;7.63;;;2.87;;
15616;SDS011;7908;51.688;7.130;2022-12-07T12:08:53;6.93;;;3.37;;
15616;SDS011;7908;51.688;7.130;2022-12-07T12:11:54;5.50;;;2.33;;
15616;SDS011;7908;51.688;7.130;2022-12-07T12:15:20;8.03;;;3.17;;
15616;SDS011;7908;51.688;7.130;2022-12-07T12:18:13;9.47;;;2.50;;
15616;SDS011;7908;51.688;7.130;2022-12-07T12:20:55;6.67;;;2.40;;
15616;SDS011;7908;51.688;7.130;2022-12-07T12:23:35;7.47;;;2.13;;
15616;SDS011;7908;51.688;7.130;2022-12-07T12:26:13;5.47;;;2.53;;
15616;SDS011;7908;51.688;7.130;2022-12-07T12:28:50;8.07;;;2.40;;
15616;SDS011;7908;51.688;7.130;2022-12-07T12:31:35;5.97;;;2.13;;
15616;SDS011;7908;51.688;7.130;2022-12-07T12:49:34;7.10;;;2.30;;
15616;SDS011;7908;51.688;7.130;2022-12-07T12:55:22;8.03;;;4.67;;
15616;SDS011;7908;51.688;7.130;2022-12-07T12:58:40;8.73;;;3.13;;
15616;SDS011;7908;51.688;7.130;2022-12-07T13:10:21;6.83;;;2.73;;
15616;SDS011;7908;51.688;7.130;2022-12-07T13:25:26;6.83;;;2.60;;
15616;SDS011;7908;51.688;7.130;2022-12-07T13:28:20;6.73;;;2.87;;
15616;SDS011;7908;51.688;7.130;2022-12-07T13:31:04;6.73;;;2.20;;
15616;SDS011;7908;51.688;7.130;2022-12-07T13:33:47;6.03;;;1.73;;
15616;SDS011;7908;51.688;7.130;2022-12-07T13:36:20;6.70;;;2.00;;
15616;SDS011;7908;51.688;7.130;2022-12-07T13:38:57;7.37;;;2.40;;
15616;SDS011;7908;51.688;7.130;2022-12-07T13:41:27;6.80;;;2.23;;
15616;SDS011;7908;51.688;7.130;2022-12-07T13:44:00;4.33;;;1.90;;
15616;SDS011;7908;51.688;7.130;2022-12-07T13:46:33;6.50;;;1.97;;
15616;SDS011;7908;51.688;7.130;2022-12-07T13:49:17;6.57;;;2.20;;
15616;SDS011;7908;51.688;7.130;2022-12-07T13:51:50;8.30;;;3.00;;
15616;SDS011;7908;51.688;7.130;2022-12-07T13:54:21;9.00;;;4.50;;
15616;SDS011;7908;51.688;7.130;2022-12-07T13:56:52;9.63;;;3.97;;
15616;SDS011;7908;51.688;7.130;2022-12-07T13:59:27;9.73;;;3.13;;
15616;SDS011;7908;51.688;7.130;2022-12-07T14:02:02;7.87;;;3.30;;
15616;SDS011;7908;51.688;7.130;2022-12-07T14:04:48;8.70;;;3.33;;
15616;SDS011;7908;51.688;7.130;2022-12-07T14:07:21;8.87;;;5.17;;
15616;SDS011;7908;51.688;7.130;2022-12-07T14:09:57;7.93;;;4.03;;
15616;SDS011;7908;51.688;7.130;2022-12-07T14:12:29;12.80;;;5.37;;
15616;SDS011;7908;51.688;7.130;2022-12-07T14:14:59;12.07;;;4.03;;
15616;SDS011;7908;51.688;7.130;2022-12-07T14:17:32;12.60;;;3.50;;
15616;SDS011;7908;51.688;7.130;2022-12-07T14:20:01;9.00;;;3.37;;
15616;SDS011;7908;51.688;7.130;2022-12-07T14:22:54;7.63;;;3.20;;
15616;SDS011;7908;51.688;7.130;2022-12-07T14:25:25;7.60;;;2.67;;
15616;SDS011;7908;51.688;7.130;2022-12-07T14:28:00;7.13;;;2.80;;
15616;SDS011;7908;51.688;7.130;2022-12-07T14:30:36;10.70;;;3.17;;
15616;SDS011;7908;51.688;7.130;2022-12-07T14:33:09;7.50;;;2.70;;
15616;SDS011;7908;51.688;7.130;2022-12-07T14:35:38;8.07;;;2.80;;
15616;SDS011;7908;51.688;7.130;2022-12-07T14:38:08;8.13;;;2.87;;
15616;SDS011;7908;51.688;7.130;2022-12-07T14:40:39;11.90;;;3.00;;
15616;SDS011;7908;51.688;7.130;2022-12-07T14:43:09;7.60;;;2.93;;
15616;SDS011;7908;51.688;7.130;2022-12-07T14:45:48;9.07;;;2.90;;
15616;SDS011;7908;51.688;7.130;2022-12-07T14:48:18;6.67;;;3.00;;
15616;SDS011;7908;51.688;7.130;2022-12-07T14:51:08;6.47;;;3.03;;
15616;SDS011;7908;51.688;7.130;2022-12-07T14:54:02;7.27;;;3.30;;
15616;SDS011;7908;51.688;7.130;2022-12-07T14:56:46;12.20;;;3.97;;
15616;SDS011;7908;51.688;7.130;2022-12-07T14:59:20;7.60;;;3.57;;
15616;SDS011;7908;51.688;7.130;2022-12-07T15:01:53;9.87;;;4.50;;
15616;SDS011;7908;51.688;7.130;2022-12-07T15:04:26;10.67;;;4.00;;
15616;SDS011;7908;51.688;7.130;2022-12-07T15:06:56;9.40;;;4.57;;
15616;SDS011;7908;51.688;7.130;2022-12-07T15:09:25;8.73;;;4.40;;
15616;SDS011;7908;51.688;7.130;2022-12-07T15:12:07;9.50;;;4.53;;
15616;SDS011;7908;51.688;7.130;2022-12-07T15:14:41;9.17;;;3.97;;
15616;SDS011;7908;51.688;7.130;2022-12-07T15:17:10;7.50;;;4.53;;
15616;SDS011;7908;51.688;7.130;2022-12-07T15:19:57;10.63;;;5.00;;
15616;SDS011;7908;51.688;7.130;2022-12-07T15:22:34;9.93;;;5.07;;
15616;SDS011;7908;51.688;7.130;2022-12-07T15:25:05;14.40;;;6.17;;
15616;SDS011;7908;51.688;7.130;2022-12-07T15:27:39;8.90;;;5.93;;
15616;SDS011;7908;51.688;7.130;2022-12-07T15:30:12;11.50;;;5.50;;
15616;SDS011;7908;51.688;7.130;2022-12-07T15:32:54;11.13;;;5.50;;
15616;SDS011;7908;51.688;7.130;2022-12-07T15:35:26;9.73;;;5.77;;
15616;SDS011;7908;51.688;7.130;2022-12-07T15:38:00;11.27;;;6.07;;
15616;SDS011;7908;51.688;7.130;2022-12-07T15:40:30;13.13;;;6.90;;
15616;SDS011;7908;51.688;7.130;2022-12-07T15:43:01;14.50;;;6.23;;
15616;SDS011;7908;51.688;7.130;2022-12-07T15:45:36;10.73;;;6.53;;
15616;SDS011;7908;51.688;7.130;2022-12-07T15:48:04;12.50;;;6.40;;
15616;SDS011;7908;51.688;7.130;2022-12-07T15:51:01;10.80;;;5.40;;
15616;SDS011;7908;51.688;7.130;2022-12-07T15:53:40;13.00;;;5.37;;
15616;SDS011;7908;51.688;7.130;2022-12-07T15:56:41;10.73;;;5.57;;
15616;SDS011;7908;51.688;7.130;2022-12-07T16:02:02;9.47;;;5.63;;
15616;SDS011;7908;51.688;7.130;2022-12-07T16:04:37;12.53;;;6.17;;
15616;SDS011;7908;51.688;7.130;2022-12-07T16:07:06;12.20;;;6.10;;
15616;SDS011;7908;51.688;7.130;2022-12-07T16:09:41;11.40;;;5.20;;
15616;SDS011;7908;51.688;7.130;2022-12-07T16:12:13;12.00;;;5.40;;
15616;SDS011;7908;51.688;7.130;2022-12-07T16:14:45;16.10;;;5.80;;